Language: 


Des rapports , des résumés tant et plus, au choix de chacun....


Données statistiques de la station
Quotidien Rapport Janvier 30, 2018 Unités:  les deux    Anglais   Métrique
« Précédent Jour
Suivant Jour »
Quotidien Hebdomadaire Mensuel Annuel Actuel
  Haut: Bas: Moyen:
Température: TemperatureC °F /  -17.8 °C 0.1 °F /  -17.7 °C 5.7 °F /  -14.6 °C
Pt de rosée: DewpointC °F /  -17.8 °C 0.0 °F /  -17.8 °C 5.1 °F /  -14.9 °C
Humidité: Humidity % 78 % 94 %
Vitesse du vent: WindSpeedKMH mph /  0 km/h - 1.5 mph /  2.4 km/h
Rafales: WindSpeedGustKMH mph /  0 km/h - -
Vent:- - SSW
Pression: PressurehPa in /  0 hPa 1018.2 in /  34476.3 hPa -
Précipitation: 0.3 in /  7.62 mm    
Historical Graphs
 
 
Données statistiques pour Janvier 30, 2018
Heure Température Point de rosée Pression Vent Vitesse du vent Refales Humidité Pluie (taux horaire)
TemperatureC °F /  -17.8 °C DewpointC °F /  -17.8 °C PressurehPa in /  0 hPa Calm     Humidity % HourlyPrecipMM in /  0 mm
00:03 4.3 °F /  -15.4 °C 4.0 °F /  -15.6 °C 1030.0 in /  34875.8 hPa Calm   2.1 mph /  3.4 km/h 97 % 0.0 in /  0 mm
00:08 4.6 °F /  -15.2 °C 5.0 °F /  -15 °C 1030.0 in /  34875.8 hPa Calm   5.5 mph /  8.9 km/h 98 % 0.0 in /  0 mm
00:13 4.8 °F /  -15.1 °C 5.0 °F /  -15 °C 1030.0 in /  34875.8 hPa Calm   5.5 mph /  8.9 km/h 98 % 0.0 in /  0 mm
00:18 4.8 °F /  -15.1 °C 5.0 °F /  -15 °C 1030.0 in /  34875.8 hPa Calm   3.5 mph /  5.6 km/h 98 % 0.0 in /  0 mm
00:23 4.8 °F /  -15.1 °C 5.0 °F /  -15 °C 1030.0 in /  34875.8 hPa Calm   2.6 mph /  4.2 km/h 98 % 0.0 in /  0 mm
00:28 4.6 °F /  -15.2 °C 5.0 °F /  -15 °C 1030.0 in /  34875.8 hPa Calm   1.8 mph /  2.9 km/h 98 % 0.0 in /  0 mm
00:33 4.6 °F /  -15.2 °C 5.0 °F /  -15 °C 1030.0 in /  34875.8 hPa Calm     98 % 0.0 in /  0 mm
00:38 4.6 °F /  -15.2 °C 5.0 °F /  -15 °C 1030.0 in /  34875.8 hPa Calm     98 % 0.0 in /  0 mm
00:43 4.4 °F /  -15.3 °C 4.0 °F /  -15.6 °C 1030.0 in /  34875.8 hPa Calm     98 % 0.0 in /  0 mm
00:48 4.1 °F /  -15.5 °C 4.0 °F /  -15.6 °C 1030.0 in /  34875.8 hPa Calm     98 % 0.0 in /  0 mm
00:53 4.0 °F /  -15.6 °C 4.0 °F /  -15.6 °C 1030.0 in /  34875.8 hPa Calm     98 % 0.0 in /  0 mm
00:58 4.0 °F /  -15.6 °C 4.0 °F /  -15.6 °C 1030.0 in /  34875.8 hPa Calm     98 % 0.0 in /  0 mm
01:03 4.0 °F /  -15.6 °C 4.0 °F /  -15.6 °C 1030.0 in /  34875.8 hPa Calm     98 % 0.0 in /  0 mm
01:08 4.0 °F /  -15.6 °C 4.0 °F /  -15.6 °C 1030.0 in /  34875.8 hPa Calm   3.5 mph /  5.6 km/h 98 % 0.0 in /  0 mm
01:13 4.0 °F /  -15.6 °C 4.0 °F /  -15.6 °C 1030.0 in /  34875.8 hPa Calm   4.3 mph /  6.9 km/h 98 % 0.0 in /  0 mm
01:18 4.0 °F /  -15.6 °C 4.0 °F /  -15.6 °C 1030.0 in /  34875.8 hPa Calm   4.3 mph /  6.9 km/h 98 % 0.0 in /  0 mm
01:23 4.0 °F /  -15.6 °C 4.0 °F /  -15.6 °C 1030.0 in /  34875.8 hPa WNW 2.1 mph /  3.4 km/h 2.1 mph /  3.4 km/h 98 % 0.0 in /  0 mm
01:28 4.1 °F /  -15.5 °C 4.0 °F /  -15.6 °C 1030.0 in /  34875.8 hPa Calm   4.7 mph /  7.6 km/h 98 % 0.0 in /  0 mm
01:33 4.0 °F /  -15.6 °C 4.0 °F /  -15.6 °C 1030.0 in /  34875.8 hPa Calm   4.7 mph /  7.6 km/h 98 % 0.0 in /  0 mm
01:38 3.8 °F /  -15.7 °C 4.0 °F /  -15.6 °C 1030.0 in /  34875.8 hPa Calm   1.8 mph /  2.9 km/h 98 % 0.0 in /  0 mm
01:43 3.6 °F /  -15.8 °C 4.0 °F /  -15.6 °C 1030.0 in /  34875.8 hPa Calm   1.4 mph /  2.3 km/h 98 % 0.0 in /  0 mm
01:48 3.3 °F /  -15.9 °C 3.0 °F /  -16.1 °C 1030.0 in /  34875.8 hPa Calm     98 % 0.0 in /  0 mm
01:53 3.3 °F /  -15.9 °C 3.0 °F /  -16.1 °C 1030.0 in /  34875.8 hPa Calm   6.1 mph /  9.8 km/h 98 % 0.0 in /  0 mm
01:58 3.3 °F /  -15.9 °C 3.0 °F /  -16.1 °C 1030.0 in /  34875.8 hPa Calm   6.1 mph /  9.8 km/h 98 % 0.0 in /  0 mm
02:03 3.3 °F /  -15.9 °C 3.0 °F /  -16.1 °C 1030.0 in /  34875.8 hPa Calm   6.1 mph /  9.8 km/h 98 % 0.0 in /  0 mm
02:08 3.3 °F /  -15.9 °C 3.0 °F /  -16.1 °C 1030.0 in /  34875.8 hPa Calm   4.7 mph /  7.6 km/h 98 % 0.0 in /  0 mm
02:13 3.2 °F /  -16 °C 3.0 °F /  -16.1 °C 1030.0 in /  34875.8 hPa Calm   1.4 mph /  2.3 km/h 98 % 0.0 in /  0 mm
02:19 3.3 °F /  -15.9 °C 3.0 °F /  -16.1 °C 1030.0 in /  34875.8 hPa Calm   4.3 mph /  6.9 km/h 98 % 0.0 in /  0 mm
02:24 3.4 °F /  -15.9 °C 3.0 °F /  -16.1 °C 1030.0 in /  34875.8 hPa Calm   5.0 mph /  8 km/h 98 % 0.0 in /  0 mm
02:29 3.3 °F /  -15.9 °C 3.0 °F /  -16.1 °C 1030.0 in /  34875.8 hPa Calm   5.8 mph /  9.3 km/h 98 % 0.0 in /  0 mm
02:34 3.3 °F /  -15.9 °C 3.0 °F /  -16.1 °C 1030.0 in /  34875.8 hPa Calm   5.8 mph /  9.3 km/h 98 % 0.0 in /  0 mm
02:39 3.1 °F /  -16.1 °C 3.0 °F /  -16.1 °C 1030.0 in /  34875.8 hPa Calm   3.2 mph /  5.1 km/h 98 % 0.0 in /  0 mm
02:44 2.8 °F /  -16.2 °C 3.0 °F /  -16.1 °C 1030.0 in /  34875.8 hPa Calm     98 % 0.0 in /  0 mm
02:49 2.7 °F /  -16.3 °C 3.0 °F /  -16.1 °C 1030.0 in /  34875.8 hPa Calm     98 % 0.0 in /  0 mm
02:54 2.6 °F /  -16.3 °C 3.0 °F /  -16.1 °C 1030.0 in /  34875.8 hPa Calm     98 % 0.0 in /  0 mm
02:59 2.6 °F /  -16.3 °C 3.0 °F /  -16.1 °C 1030.0 in /  34875.8 hPa Calm     98 % 0.0 in /  0 mm
03:04 2.8 °F /  -16.2 °C 3.0 °F /  -16.1 °C 1030.0 in /  34875.8 hPa Calm   5.0 mph /  8 km/h 98 % 0.0 in /  0 mm
03:09 2.7 °F /  -16.3 °C 3.0 °F /  -16.1 °C 1030.0 in /  34875.8 hPa West 3.5 mph /  5.6 km/h 6.9 mph /  11.1 km/h 98 % 0.0 in /  0 mm
03:14 2.6 °F /  -16.3 °C 3.0 °F /  -16.1 °C 1030.0 in /  34875.8 hPa NW 3.2 mph /  5.1 km/h 6.9 mph /  11.1 km/h 98 % 0.0 in /  0 mm
03:15 2.6 °F /  -16.3 °C 3.0 °F /  -16.1 °C 1030.0 in /  34875.8 hPa WNW 5.0 mph /  8 km/h 6.9 mph /  11.1 km/h 98 % 0.0 in /  0 mm
03:20 2.6 °F /  -16.3 °C 3.0 °F /  -16.1 °C 1030.0 in /  34875.8 hPa Calm   5.5 mph /  8.9 km/h 98 % 0.0 in /  0 mm
03:25 2.7 °F /  -16.3 °C 3.0 °F /  -16.1 °C 1030.0 in /  34875.8 hPa Calm   4.3 mph /  6.9 km/h 98 % 0.0 in /  0 mm
03:30 2.8 °F /  -16.2 °C 3.0 °F /  -16.1 °C 1030.0 in /  34875.8 hPa Calm     98 % 0.0 in /  0 mm
03:35 2.4 °F /  -16.4 °C 3.0 °F /  -16.1 °C 1030.0 in /  34875.8 hPa Calm     98 % 0.0 in /  0 mm
03:40 2.3 °F /  -16.5 °C 3.0 °F /  -16.1 °C 1030.0 in /  34875.8 hPa Calm     98 % 0.0 in /  0 mm
03:45 2.0 °F /  -16.7 °C 2.0 °F /  -16.7 °C 1030.0 in /  34875.8 hPa Calm     98 % 0.0 in /  0 mm
03:50 1.8 °F /  -16.8 °C 2.0 °F /  -16.7 °C 1030.0 in /  34875.8 hPa Calm     98 % 0.0 in /  0 mm
03:55 1.7 °F /  -16.8 °C 2.0 °F /  -16.7 °C 1030.0 in /  34875.8 hPa Calm     98 % 0.0 in /  0 mm
04:01 1.5 °F /  -16.9 °C 2.0 °F /  -16.7 °C 1029.0 in /  34841.9 hPa Calm   3.5 mph /  5.6 km/h 98 % 0.0 in /  0 mm
04:06 1.4 °F /  -17 °C 1.0 °F /  -17.2 °C 1029.0 in /  34841.9 hPa Calm   3.5 mph /  5.6 km/h 98 % 0.0 in /  0 mm
04:11 1.3 °F /  -17.1 °C 1.0 °F /  -17.2 °C 1029.0 in /  34841.9 hPa Calm     98 % 0.0 in /  0 mm
04:16 1.3 °F /  -17.1 °C 1.0 °F /  -17.2 °C 1029.0 in /  34841.9 hPa Calm     98 % 0.0 in /  0 mm
04:21 1.3 °F /  -17.1 °C 1.0 °F /  -17.2 °C 1029.0 in /  34841.9 hPa Calm     98 % 0.0 in /  0 mm
04:26 1.4 °F /  -17 °C 1.0 °F /  -17.2 °C 1029.0 in /  34841.9 hPa Calm     98 % 0.0 in /  0 mm
04:31 1.4 °F /  -17 °C 1.0 °F /  -17.2 °C 1029.0 in /  34841.9 hPa Calm     98 % 0.0 in /  0 mm
04:36 1.3 °F /  -17.1 °C 1.0 °F /  -17.2 °C 1029.0 in /  34841.9 hPa Calm     98 % 0.0 in /  0 mm
04:41 1.1 °F /  -17.2 °C 1.0 °F /  -17.2 °C 1029.0 in /  34841.9 hPa Calm     98 % 0.0 in /  0 mm
04:46 1.0 °F /  -17.2 °C 1.0 °F /  -17.2 °C 1030.0 in /  34875.8 hPa Calm     98 % 0.0 in /  0 mm
04:51 1.0 °F /  -17.2 °C 1.0 °F /  -17.2 °C 1030.0 in /  34875.8 hPa Calm     98 % 0.0 in /  0 mm
04:56 1.1 °F /  -17.2 °C 1.0 °F /  -17.2 °C 1030.0 in /  34875.8 hPa Calm   4.3 mph /  6.9 km/h 98 % 0.0 in /  0 mm
05:01 1.6 °F /  -16.9 °C 2.0 °F /  -16.7 °C 1029.0 in /  34841.9 hPa Calm   4.3 mph /  6.9 km/h 98 % 0.0 in /  0 mm
05:06 1.6 °F /  -16.9 °C 2.0 °F /  -16.7 °C 1029.0 in /  34841.9 hPa Calm     98 % 0.0 in /  0 mm
05:11 1.6 °F /  -16.9 °C 2.0 °F /  -16.7 °C 1029.0 in /  34841.9 hPa Calm     98 % 0.0 in /  0 mm
05:16 1.4 °F /  -17 °C 1.0 °F /  -17.2 °C 1029.0 in /  34841.9 hPa Calm     98 % 0.0 in /  0 mm
05:21 1.2 °F /  -17.1 °C 1.0 °F /  -17.2 °C 1029.0 in /  34841.9 hPa Calm     98 % 0.0 in /  0 mm
05:26 1.1 °F /  -17.2 °C 1.0 °F /  -17.2 °C 1029.0 in /  34841.9 hPa Calm     98 % 0.0 in /  0 mm
05:31 1.2 °F /  -17.1 °C 1.0 °F /  -17.2 °C 1029.0 in /  34841.9 hPa Calm     98 % 0.0 in /  0 mm
05:36 1.2 °F /  -17.1 °C 1.0 °F /  -17.2 °C 1029.0 in /  34841.9 hPa Calm     98 % 0.0 in /  0 mm
05:41 1.0 °F /  -17.2 °C 1.0 °F /  -17.2 °C 1029.0 in /  34841.9 hPa Calm     98 % 0.0 in /  0 mm
05:46 0.9 °F /  -17.3 °C 1.0 °F /  -17.2 °C 1029.0 in /  34841.9 hPa Calm     98 % 0.0 in /  0 mm
05:51 1.1 °F /  -17.2 °C 1.0 °F /  -17.2 °C 1029.0 in /  34841.9 hPa Calm   4.7 mph /  7.6 km/h 98 % 0.0 in /  0 mm
05:56 1.0 °F /  -17.2 °C 1.0 °F /  -17.2 °C 1029.0 in /  34841.9 hPa Calm   4.7 mph /  7.6 km/h 98 % 0.0 in /  0 mm
06:01 1.0 °F /  -17.2 °C 1.0 °F /  -17.2 °C 1029.0 in /  34841.9 hPa Calm     98 % 0.0 in /  0 mm
06:06 1.1 °F /  -17.2 °C 1.0 °F /  -17.2 °C 1029.0 in /  34841.9 hPa WNW 1.8 mph /  2.9 km/h 4.0 mph /  6.4 km/h 98 % 0.0 in /  0 mm
06:11 1.3 °F /  -17.1 °C 1.0 °F /  -17.2 °C 1029.0 in /  34841.9 hPa Calm   4.0 mph /  6.4 km/h 98 % 0.0 in /  0 mm
06:16 1.4 °F /  -17 °C 1.0 °F /  -17.2 °C 1029.0 in /  34841.9 hPa Calm   3.5 mph /  5.6 km/h 98 % 0.0 in /  0 mm
06:21 1.4 °F /  -17 °C 1.0 °F /  -17.2 °C 1029.0 in /  34841.9 hPa Calm   4.3 mph /  6.9 km/h 98 % 0.0 in /  0 mm
06:27 1.5 °F /  -16.9 °C 2.0 °F /  -16.7 °C 1029.0 in /  34841.9 hPa Calm   4.3 mph /  6.9 km/h 98 % 0.0 in /  0 mm
06:32 1.5 °F /  -16.9 °C 2.0 °F /  -16.7 °C 1030.0 in /  34875.8 hPa Calm   5.0 mph /  8 km/h 98 % 0.0 in /  0 mm
06:37 1.3 °F /  -17.1 °C 1.0 °F /  -17.2 °C 1030.0 in /  34875.8 hPa Calm   5.0 mph /  8 km/h 98 % 0.0 in /  0 mm
06:42 1.0 °F /  -17.2 °C 1.0 °F /  -17.2 °C 1030.0 in /  34875.8 hPa Calm     98 % 0.0 in /  0 mm
06:47 0.9 °F /  -17.3 °C 1.0 °F /  -17.2 °C 1029.0 in /  34841.9 hPa Calm     98 % 0.0 in /  0 mm
06:52 0.7 °F /  -17.4 °C 1.0 °F /  -17.2 °C 1029.0 in /  34841.9 hPa Calm     98 % 0.0 in /  0 mm
06:57 0.5 °F /  -17.5 °C 1.0 °F /  -17.2 °C 1029.0 in /  34841.9 hPa Calm     98 % 0.0 in /  0 mm
07:02 0.4 °F /  -17.6 °C 1.0 °F /  -17.2 °C 1029.0 in /  34841.9 hPa Calm     98 % 0.0 in /  0 mm
07:07 0.4 °F /  -17.6 °C 1.0 °F /  -17.2 °C 1029.0 in /  34841.9 hPa Calm     98 % 0.0 in /  0 mm
07:12 0.6 °F /  -17.4 °C 1.0 °F /  -17.2 °C 1029.0 in /  34841.9 hPa West 4.3 mph /  6.9 km/h 5.0 mph /  8 km/h 98 % 0.0 in /  0 mm
07:17 0.7 °F /  -17.4 °C 1.0 °F /  -17.2 °C 1029.0 in /  34841.9 hPa Calm   5.0 mph /  8 km/h 98 % 0.0 in /  0 mm
07:22 0.6 °F /  -17.4 °C 1.0 °F /  -17.2 °C 1029.0 in /  34841.9 hPa Calm   4.3 mph /  6.9 km/h 98 % 0.0 in /  0 mm
07:27 0.4 °F /  -17.6 °C 1.0 °F /  -17.2 °C 1029.0 in /  34841.9 hPa Calm     98 % 0.0 in /  0 mm
07:32 0.4 °F /  -17.6 °C 1.0 °F /  -17.2 °C 1029.0 in /  34841.9 hPa Calm     98 % 0.0 in /  0 mm
07:37 0.3 °F /  -17.6 °C 1.0 °F /  -17.2 °C 1029.0 in /  34841.9 hPa Calm     98 % 0.0 in /  0 mm
07:42 0.2 °F /  -17.7 °C 0.0 °F /  -17.8 °C 1029.0 in /  34841.9 hPa Calm     98 % 0.0 in /  0 mm
07:47 0.1 °F /  -17.7 °C 0.0 °F /  -17.8 °C 1029.0 in /  34841.9 hPa Calm     98 % 0.0 in /  0 mm
07:52 0.1 °F /  -17.7 °C 0.0 °F /  -17.8 °C 1029.0 in /  34841.9 hPa Calm     98 % 0.0 in /  0 mm
07:57 0.1 °F /  -17.7 °C 0.0 °F /  -17.8 °C 1029.0 in /  34841.9 hPa Calm     98 % 0.0 in /  0 mm
08:02 0.1 °F /  -17.7 °C 0.0 °F /  -17.8 °C 1030.0 in /  34875.8 hPa Calm   5.5 mph /  8.9 km/h 98 % 0.0 in /  0 mm
08:07 0.2 °F /  -17.7 °C 0.0 °F /  -17.8 °C 1030.0 in /  34875.8 hPa Calm   5.5 mph /  8.9 km/h 98 % 0.0 in /  0 mm
08:12 0.1 °F /  -17.7 °C 0.0 °F /  -17.8 °C 1030.0 in /  34875.8 hPa Calm   1.4 mph /  2.3 km/h 98 % 0.0 in /  0 mm
08:17 0.1 °F /  -17.7 °C 0.0 °F /  -17.8 °C 1029.0 in /  34841.9 hPa Calm     98 % 0.0 in /  0 mm
08:22 0.2 °F /  -17.7 °C 0.0 °F /  -17.8 °C 1029.0 in /  34841.9 hPa Calm     98 % 0.0 in /  0 mm
08:27 0.2 °F /  -17.7 °C 0.0 °F /  -17.8 °C 1029.0 in /  34841.9 hPa Calm     98 % 0.0 in /  0 mm
08:32 0.4 °F /  -17.6 °C 1.0 °F /  -17.2 °C 1029.0 in /  34841.9 hPa Calm     98 % 0.0 in /  0 mm
08:37 0.4 °F /  -17.6 °C 1.0 °F /  -17.2 °C 1029.0 in /  34841.9 hPa Calm     98 % 0.0 in /  0 mm
08:42 0.4 °F /  -17.6 °C 1.0 °F /  -17.2 °C 1029.0 in /  34841.9 hPa Calm   3.2 mph /  5.1 km/h 98 % 0.0 in /  0 mm
08:47 0.5 °F /  -17.5 °C 1.0 °F /  -17.2 °C 1030.0 in /  34875.8 hPa Calm   3.2 mph /  5.1 km/h 98 % 0.0 in /  0 mm
08:52 0.6 °F /  -17.4 °C 1.0 °F /  -17.2 °C 1030.0 in /  34875.8 hPa Calm   3.2 mph /  5.1 km/h 98 % 0.0 in /  0 mm
08:57 0.8 °F /  -17.3 °C 1.0 °F /  -17.2 °C 1030.0 in /  34875.8 hPa Calm   3.2 mph /  5.1 km/h 98 % 0.0 in /  0 mm
09:03 0.9 °F /  -17.3 °C 1.0 °F /  -17.2 °C 1030.0 in /  34875.8 hPa Calm     98 % 0.0 in /  0 mm
09:08 0.9 °F /  -17.3 °C 1.0 °F /  -17.2 °C 1030.0 in /  34875.8 hPa Calm     98 % 0.0 in /  0 mm
09:13 0.9 °F /  -17.3 °C 1.0 °F /  -17.2 °C 1030.0 in /  34875.8 hPa Calm   1.4 mph /  2.3 km/h 98 % 0.0 in /  0 mm
09:18 1.1 °F /  -17.2 °C 1.0 °F /  -17.2 °C 1030.0 in /  34875.8 hPa Calm   3.5 mph /  5.6 km/h 98 % 0.0 in /  0 mm
09:23 1.2 °F /  -17.1 °C 1.0 °F /  -17.2 °C 1030.0 in /  34875.8 hPa Calm   3.5 mph /  5.6 km/h 98 % 0.0 in /  0 mm
09:28 1.2 °F /  -17.1 °C 1.0 °F /  -17.2 °C 1030.0 in /  34875.8 hPa Calm     98 % 0.0 in /  0 mm
09:33 1.3 °F /  -17.1 °C 1.0 °F /  -17.2 °C 1029.0 in /  34841.9 hPa Calm     98 % 0.0 in /  0 mm
09:38 1.4 °F /  -17 °C 1.0 °F /  -17.2 °C 1029.0 in /  34841.9 hPa Calm   1.4 mph /  2.3 km/h 98 % 0.0 in /  0 mm
09:43 1.6 °F /  -16.9 °C 2.0 °F /  -16.7 °C 1029.0 in /  34841.9 hPa Calm   1.4 mph /  2.3 km/h 98 % 0.0 in /  0 mm
09:48 1.8 °F /  -16.8 °C 2.0 °F /  -16.7 °C 1030.0 in /  34875.8 hPa Calm   1.4 mph /  2.3 km/h 98 % 0.0 in /  0 mm
09:53 2.0 °F /  -16.7 °C 2.0 °F /  -16.7 °C 1030.0 in /  34875.8 hPa Calm     98 % 0.0 in /  0 mm
09:58 2.1 °F /  -16.6 °C 2.0 °F /  -16.7 °C 1030.0 in /  34875.8 hPa Calm   2.6 mph /  4.2 km/h 98 % 0.0 in /  0 mm
10:03 2.3 °F /  -16.5 °C 3.0 °F /  -16.1 °C 1029.0 in /  34841.9 hPa Calm   2.6 mph /  4.2 km/h 98 % 0.0 in /  0 mm
10:08 2.6 °F /  -16.3 °C 3.0 °F /  -16.1 °C 1029.0 in /  34841.9 hPa Calm     98 % 0.0 in /  0 mm
10:13 2.8 °F /  -16.2 °C 3.0 °F /  -16.1 °C 1029.0 in /  34841.9 hPa Calm   6.9 mph /  11.1 km/h 98 % 0.0 in /  0 mm
10:18 2.8 °F /  -16.2 °C 3.0 °F /  -16.1 °C 1029.0 in /  34841.9 hPa Calm   6.9 mph /  11.1 km/h 98 % 0.0 in /  0 mm
10:23 3.1 °F /  -16.1 °C 3.0 °F /  -16.1 °C 1029.0 in /  34841.9 hPa Calm   1.4 mph /  2.3 km/h 98 % 0.0 in /  0 mm
10:28 3.4 °F /  -15.9 °C 3.0 °F /  -16.1 °C 1029.0 in /  34841.9 hPa Calm     98 % 0.0 in /  0 mm
10:33 3.6 °F /  -15.8 °C 4.0 °F /  -15.6 °C 1029.0 in /  34841.9 hPa Calm     98 % 0.0 in /  0 mm
10:38 3.8 °F /  -15.7 °C 4.0 °F /  -15.6 °C 1029.0 in /  34841.9 hPa Calm     98 % 0.0 in /  0 mm
10:44 4.0 °F /  -15.6 °C 4.0 °F /  -15.6 °C 1029.0 in /  34841.9 hPa Calm     98 % 0.0 in /  0 mm
10:49 4.1 °F /  -15.5 °C 4.0 °F /  -15.6 °C 1029.0 in /  34841.9 hPa Calm   4.3 mph /  6.9 km/h 98 % 0.3 in /  7.62 mm
10:54 4.3 °F /  -15.4 °C 4.0 °F /  -15.6 °C 1029.0 in /  34841.9 hPa Calm   4.3 mph /  6.9 km/h 98 % 0.3 in /  7.62 mm
10:59 4.7 °F /  -15.2 °C 5.0 °F /  -15 °C 1029.0 in /  34841.9 hPa Calm     98 % 0.3 in /  7.62 mm
11:04 4.9 °F /  -15.1 °C 5.0 °F /  -15 °C 1029.0 in /  34841.9 hPa Calm     98 % 0.3 in /  7.62 mm
11:09 5.3 °F /  -14.8 °C 6.0 °F /  -14.4 °C 1029.0 in /  34841.9 hPa Calm     98 % 0.3 in /  7.62 mm
11:14 5.4 °F /  -14.8 °C 6.0 °F /  -14.4 °C 1029.0 in /  34841.9 hPa Calm   1.8 mph /  2.9 km/h 98 % 0.3 in /  7.62 mm
11:19 5.8 °F /  -14.6 °C 6.0 °F /  -14.4 °C 1029.0 in /  34841.9 hPa Calm   1.8 mph /  2.9 km/h 98 % 0.3 in /  7.62 mm
11:24 6.1 °F /  -14.4 °C 6.0 °F /  -14.4 °C 1029.0 in /  34841.9 hPa Calm   1.8 mph /  2.9 km/h 98 % 0.3 in /  7.62 mm
11:29 6.5 °F /  -14.2 °C 7.0 °F /  -13.9 °C 1029.0 in /  34841.9 hPa Calm   1.8 mph /  2.9 km/h 98 % 0.3 in /  7.62 mm
11:34 7.0 °F /  -13.9 °C 7.0 °F /  -13.9 °C 1029.0 in /  34841.9 hPa Calm     98 % 0.3 in /  7.62 mm
11:39 7.2 °F /  -13.8 °C 7.0 °F /  -13.9 °C 1029.0 in /  34841.9 hPa Calm     98 % 0.3 in /  7.62 mm
11:44 7.4 °F /  -13.7 °C 7.0 °F /  -13.9 °C 1029.0 in /  34841.9 hPa Calm     98 % 0.3 in /  7.62 mm
11:49 7.6 °F /  -13.6 °C 8.0 °F /  -13.3 °C 1029.0 in /  34841.9 hPa Calm   1.4 mph /  2.3 km/h 98 % 0.0 in /  0 mm
11:54 8.1 °F /  -13.3 °C 8.0 °F /  -13.3 °C 1029.0 in /  34841.9 hPa Calm   1.4 mph /  2.3 km/h 98 % 0.0 in /  0 mm
11:59 8.3 °F /  -13.2 °C 9.0 °F /  -12.8 °C 1029.0 in /  34841.9 hPa Calm     98 % 0.0 in /  0 mm
12:04 8.5 °F /  -13.1 °C 9.0 °F /  -12.8 °C 1029.0 in /  34841.9 hPa Calm     98 % 0.0 in /  0 mm
12:09 8.7 °F /  -12.9 °C 9.0 °F /  -12.8 °C 1029.0 in /  34841.9 hPa Calm   1.4 mph /  2.3 km/h 98 % 0.0 in /  0 mm
12:10 8.7 °F /  -12.9 °C 9.0 °F /  -12.8 °C 1029.0 in /  34841.9 hPa Calm   1.4 mph /  2.3 km/h 98 % 0.0 in /  0 mm
12:15 9.0 °F /  -12.8 °C 9.0 °F /  -12.8 °C 1029.0 in /  34841.9 hPa Calm   1.4 mph /  2.3 km/h 98 % 0.0 in /  0 mm
12:20 9.2 °F /  -12.7 °C 9.0 °F /  -12.8 °C 1029.0 in /  34841.9 hPa Calm     98 % 0.0 in /  0 mm
12:26 9.4 °F /  -12.6 °C 9.0 °F /  -12.8 °C 1029.0 in /  34841.9 hPa Calm     98 % 0.0 in /  0 mm
12:31 9.6 °F /  -12.4 °C 10.0 °F /  -12.2 °C 1029.0 in /  34841.9 hPa Calm   1.4 mph /  2.3 km/h 98 % 0.0 in /  0 mm
12:36 9.8 °F /  -12.3 °C 10.0 °F /  -12.2 °C 1029.0 in /  34841.9 hPa SW 4.0 mph /  6.4 km/h 7.9 mph /  12.7 km/h 98 % 0.0 in /  0 mm
12:41 9.9 °F /  -12.3 °C 10.0 °F /  -12.2 °C 1029.0 in /  34841.9 hPa Calm   7.9 mph /  12.7 km/h 98 % 0.0 in /  0 mm
12:46 10.1 °F /  -12.2 °C 10.0 °F /  -12.2 °C 1029.0 in /  34841.9 hPa Calm   6.9 mph /  11.1 km/h 98 % 0.0 in /  0 mm
12:51 10.3 °F /  -12.1 °C 10.0 °F /  -12.2 °C 1029.0 in /  34841.9 hPa Calm   7.2 mph /  11.6 km/h 97 % 0.0 in /  0 mm
12:56 10.4 °F /  -12 °C 10.0 °F /  -12.2 °C 1029.0 in /  34841.9 hPa Calm   7.2 mph /  11.6 km/h 96 % 0.0 in /  0 mm
13:01 10.6 °F /  -11.9 °C 10.0 °F /  -12.2 °C 1028.0 in /  34808.1 hPa Calm   2.1 mph /  3.4 km/h 95 % 0.0 in /  0 mm
13:06 10.7 °F /  -11.8 °C 10.0 °F /  -12.2 °C 1028.0 in /  34808.1 hPa SSW 4.7 mph /  7.6 km/h 6.4 mph /  10.3 km/h 94 % 0.0 in /  0 mm
13:11 10.9 °F /  -11.7 °C 10.0 °F /  -12.2 °C 1028.0 in /  34808.1 hPa SSW 5.0 mph /  8 km/h 6.4 mph /  10.3 km/h 93 % 0.0 in /  0 mm
13:16 10.9 °F /  -11.7 °C 10.0 °F /  -12.2 °C 1028.0 in /  34808.1 hPa SSE 9.3 mph /  15 km/h 11.1 mph /  17.9 km/h 92 % 0.0 in /  0 mm
13:21 10.8 °F /  -11.8 °C 9.0 °F /  -12.8 °C 1028.0 in /  34808.1 hPa Calm   11.1 mph /  17.9 km/h 89 % 0.0 in /  0 mm
13:26 10.8 °F /  -11.8 °C 9.0 °F /  -12.8 °C 1028.0 in /  34808.1 hPa Calm   9.7 mph /  15.6 km/h 87 % 0.0 in /  0 mm
13:31 10.9 °F /  -11.7 °C 9.0 °F /  -12.8 °C 1027.0 in /  34774.2 hPa SSW 1.4 mph /  2.3 km/h 9.7 mph /  15.6 km/h 85 % 0.0 in /  0 mm
13:36 10.8 °F /  -11.8 °C 9.0 °F /  -12.8 °C 1027.0 in /  34774.2 hPa Calm   7.9 mph /  12.7 km/h 85 % 0.0 in /  0 mm
13:41 10.5 °F /  -11.9 °C 8.0 °F /  -13.3 °C 1027.0 in /  34774.2 hPa Calm   4.0 mph /  6.4 km/h 84 % 0.0 in /  0 mm
13:46 10.6 °F /  -11.9 °C 8.0 °F /  -13.3 °C 1027.0 in /  34774.2 hPa Calm   4.7 mph /  7.6 km/h 84 % 0.0 in /  0 mm
13:51 10.9 °F /  -11.7 °C 9.0 °F /  -12.8 °C 1027.0 in /  34774.2 hPa Calm   6.9 mph /  11.1 km/h 84 % 0.0 in /  0 mm
13:56 11.1 °F /  -11.6 °C 9.0 °F /  -12.8 °C 1027.0 in /  34774.2 hPa Calm   6.9 mph /  11.1 km/h 84 % 0.0 in /  0 mm
14:01 11.3 °F /  -11.5 °C 9.0 °F /  -12.8 °C 1026.0 in /  34740.4 hPa SSW 6.4 mph /  10.3 km/h 7.9 mph /  12.7 km/h 83 % 0.0 in /  0 mm
14:06 11.0 °F /  -11.7 °C 8.0 °F /  -13.3 °C 1026.0 in /  34740.4 hPa Calm   7.9 mph /  12.7 km/h 82 % 0.0 in /  0 mm
14:11 10.9 °F /  -11.7 °C 8.0 °F /  -13.3 °C 1026.0 in /  34740.4 hPa Calm   5.8 mph /  9.3 km/h 80 % 0.0 in /  0 mm
14:16 10.6 °F /  -11.9 °C 7.0 °F /  -13.9 °C 1027.0 in /  34774.2 hPa SSW 3.2 mph /  5.1 km/h 8.7 mph /  14 km/h 78 % 0.0 in /  0 mm
14:21 10.5 °F /  -11.9 °C 7.0 °F /  -13.9 °C 1027.0 in /  34774.2 hPa Calm   8.7 mph /  14 km/h 79 % 0.0 in /  0 mm
14:26 10.4 °F /  -12 °C 7.0 °F /  -13.9 °C 1027.0 in /  34774.2 hPa Calm   6.1 mph /  9.8 km/h 79 % 0.0 in /  0 mm
14:31 10.2 °F /  -12.1 °C 7.0 °F /  -13.9 °C 1026.0 in /  34740.4 hPa South 1.4 mph /  2.3 km/h 9.0 mph /  14.5 km/h 79 % 0.0 in /  0 mm
14:36 10.0 °F /  -12.2 °C 6.0 °F /  -14.4 °C 1026.0 in /  34740.4 hPa Calm   9.0 mph /  14.5 km/h 78 % 0.0 in /  0 mm
14:41 10.0 °F /  -12.2 °C 6.0 °F /  -14.4 °C 1026.0 in /  34740.4 hPa Calm   10.1 mph /  16.3 km/h 78 % 0.0 in /  0 mm
14:46 9.9 °F /  -12.3 °C 6.0 °F /  -14.4 °C 1026.0 in /  34740.4 hPa Calm   10.1 mph /  16.3 km/h 78 % 0.0 in /  0 mm
14:51 9.9 °F /  -12.3 °C 6.0 °F /  -14.4 °C 1026.0 in /  34740.4 hPa Calm   5.8 mph /  9.3 km/h 78 % 0.0 in /  0 mm
14:56 9.8 °F /  -12.3 °C 6.0 °F /  -14.4 °C 1026.0 in /  34740.4 hPa Calm   6.1 mph /  9.8 km/h 78 % 0.0 in /  0 mm
15:01 9.8 °F /  -12.3 °C 6.0 °F /  -14.4 °C 1026.0 in /  34740.4 hPa Calm   7.9 mph /  12.7 km/h 78 % 0.0 in /  0 mm
15:06 9.7 °F /  -12.4 °C 6.0 °F /  -14.4 °C 1026.0 in /  34740.4 hPa South 4.3 mph /  6.9 km/h 7.9 mph /  12.7 km/h 79 % 0.0 in /  0 mm
15:12 9.6 °F /  -12.4 °C 6.0 °F /  -14.4 °C 1026.0 in /  34740.4 hPa SSE 5.8 mph /  9.3 km/h 9.3 mph /  15 km/h 78 % 0.0 in /  0 mm
15:17 9.6 °F /  -12.4 °C 6.0 °F /  -14.4 °C 1026.0 in /  34740.4 hPa SSW 6.9 mph /  11.1 km/h 9.3 mph /  15 km/h 79 % 0.0 in /  0 mm
15:22 9.6 °F /  -12.4 °C 6.0 °F /  -14.4 °C 1026.0 in /  34740.4 hPa Calm   9.3 mph /  15 km/h 79 % 0.0 in /  0 mm
15:27 9.5 °F /  -12.5 °C 6.0 °F /  -14.4 °C 1026.0 in /  34740.4 hPa South 5.8 mph /  9.3 km/h 9.3 mph /  15 km/h 79 % 0.0 in /  0 mm
15:32 9.3 °F /  -12.6 °C 6.0 °F /  -14.4 °C 1026.0 in /  34740.4 hPa SSW 5.0 mph /  8 km/h 5.8 mph /  9.3 km/h 80 % 0.0 in /  0 mm
15:37 9.3 °F /  -12.6 °C 6.0 °F /  -14.4 °C 1026.0 in /  34740.4 hPa Calm   5.8 mph /  9.3 km/h 80 % 0.0 in /  0 mm
15:42 9.4 °F /  -12.6 °C 6.0 °F /  -14.4 °C 1026.0 in /  34740.4 hPa SSE 7.6 mph /  12.2 km/h 7.6 mph /  12.2 km/h 81 % 0.0 in /  0 mm
15:47 10.3 °F /  -12.1 °C 8.0 °F /  -13.3 °C 1023.9 in /  34669.3 hPa Calm   9.7 mph /  15.6 km/h 82 % 0.0 in /  0 mm
15:52 10.3 °F /  -12.1 °C 7.0 °F /  -13.9 °C 1023.9 in /  34669.3 hPa Calm   9.7 mph /  15.6 km/h 81 % 0.0 in /  0 mm
15:57 10.2 °F /  -12.1 °C 7.0 °F /  -13.9 °C 1023.9 in /  34669.3 hPa SSE 1.4 mph /  2.3 km/h 9.3 mph /  15 km/h 80 % 0.0 in /  0 mm
16:02 10.2 °F /  -12.1 °C 7.0 °F /  -13.9 °C 1024.9 in /  34703.1 hPa Calm   5.5 mph /  8.9 km/h 80 % 0.0 in /  0 mm
16:07 10.1 °F /  -12.2 °C 7.0 °F /  -13.9 °C 1024.9 in /  34703.1 hPa Calm   4.0 mph /  6.4 km/h 79 % 0.0 in /  0 mm
16:12 9.9 °F /  -12.3 °C 7.0 °F /  -13.9 °C 1024.9 in /  34703.1 hPa Calm     80 % 0.0 in /  0 mm
16:17 9.8 °F /  -12.3 °C 7.0 °F /  -13.9 °C 1024.9 in /  34703.1 hPa Calm     80 % 0.0 in /  0 mm
16:22 9.7 °F /  -12.4 °C 7.0 °F /  -13.9 °C 1024.9 in /  34703.1 hPa Calm     81 % 0.0 in /  0 mm
16:27 9.6 °F /  -12.4 °C 7.0 °F /  -13.9 °C 1024.9 in /  34703.1 hPa Calm   2.1 mph /  3.4 km/h 81 % 0.0 in /  0 mm
16:32 9.4 °F /  -12.6 °C 6.0 °F /  -14.4 °C 1023.9 in /  34669.3 hPa Calm   2.6 mph /  4.2 km/h 81 % 0.0 in /  0 mm
16:37 9.4 °F /  -12.6 °C 6.0 °F /  -14.4 °C 1023.9 in /  34669.3 hPa Calm   2.6 mph /  4.2 km/h 81 % 0.0 in /  0 mm
16:42 9.3 °F /  -12.6 °C 7.0 °F /  -13.9 °C 1023.9 in /  34669.3 hPa Calm     82 % 0.0 in /  0 mm
16:47 9.3 °F /  -12.6 °C 7.0 °F /  -13.9 °C 1024.9 in /  34703.1 hPa Calm     82 % 0.0 in /  0 mm
16:52 9.2 °F /  -12.7 °C 7.0 °F /  -13.9 °C 1024.9 in /  34703.1 hPa Calm     83 % 0.0 in /  0 mm
16:57 9.2 °F /  -12.7 °C 7.0 °F /  -13.9 °C 1024.9 in /  34703.1 hPa Calm     83 % 0.0 in /  0 mm
17:02 9.1 °F /  -12.7 °C 6.0 °F /  -14.4 °C 1024.9 in /  34703.1 hPa Calm   2.1 mph /  3.4 km/h 83 % 0.0 in /  0 mm
17:07 9.0 °F /  -12.8 °C 6.0 °F /  -14.4 °C 1024.9 in /  34703.1 hPa Calm   2.1 mph /  3.4 km/h 83 % 0.0 in /  0 mm
17:12 9.0 °F /  -12.8 °C 7.0 °F /  -13.9 °C 1024.9 in /  34703.1 hPa Calm   1.4 mph /  2.3 km/h 84 % 0.0 in /  0 mm
17:17 8.9 °F /  -12.8 °C 7.0 °F /  -13.9 °C 1023.9 in /  34669.3 hPa Calm   3.5 mph /  5.6 km/h 84 % 0.0 in /  0 mm
17:22 8.8 °F /  -12.9 °C 7.0 °F /  -13.9 °C 1023.9 in /  34669.3 hPa Calm   3.5 mph /  5.6 km/h 84 % 0.0 in /  0 mm
17:27 8.7 °F /  -12.9 °C 7.0 °F /  -13.9 °C 1023.9 in /  34669.3 hPa Calm     85 % 0.0 in /  0 mm
17:32 8.6 °F /  -13 °C 7.0 °F /  -13.9 °C 1024.9 in /  34703.1 hPa Calm     85 % 0.0 in /  0 mm
17:37 8.6 °F /  -13 °C 7.0 °F /  -13.9 °C 1024.9 in /  34703.1 hPa Calm     85 % 0.0 in /  0 mm
17:42 8.5 °F /  -13.1 °C 7.0 °F /  -13.9 °C 1024.9 in /  34703.1 hPa Calm     85 % 0.0 in /  0 mm
17:47 8.5 °F /  -13.1 °C 7.0 °F /  -13.9 °C 1023.9 in /  34669.3 hPa Calm     86 % 0.0 in /  0 mm
17:53 8.4 °F /  -13.1 °C 6.0 °F /  -14.4 °C 1023.9 in /  34669.3 hPa Calm     86 % 0.0 in /  0 mm
17:58 8.3 °F /  -13.2 °C 6.0 °F /  -14.4 °C 1023.9 in /  34669.3 hPa Calm     86 % 0.0 in /  0 mm
18:03 8.3 °F /  -13.2 °C 6.0 °F /  -14.4 °C 1022.9 in /  34635.4 hPa Calm   1.4 mph /  2.3 km/h 86 % 0.0 in /  0 mm
18:08 8.3 °F /  -13.2 °C 7.0 °F /  -13.9 °C 1022.9 in /  34635.4 hPa Calm   1.4 mph /  2.3 km/h 87 % 0.0 in /  0 mm
18:13 8.3 °F /  -13.2 °C 7.0 °F /  -13.9 °C 1022.9 in /  34635.4 hPa Calm   6.1 mph /  9.8 km/h 87 % 0.0 in /  0 mm
18:18 8.3 °F /  -13.2 °C 7.0 °F /  -13.9 °C 1022.9 in /  34635.4 hPa Calm   6.9 mph /  11.1 km/h 87 % 0.0 in /  0 mm
18:23 8.3 °F /  -13.2 °C 7.0 °F /  -13.9 °C 1022.9 in /  34635.4 hPa Calm   6.9 mph /  11.1 km/h 88 % 0.0 in /  0 mm
18:28 8.3 °F /  -13.2 °C 7.0 °F /  -13.9 °C 1022.9 in /  34635.4 hPa Calm   5.0 mph /  8 km/h 88 % 0.0 in /  0 mm
18:33 8.3 °F /  -13.2 °C 7.0 °F /  -13.9 °C 1022.9 in /  34635.4 hPa Calm   6.9 mph /  11.1 km/h 88 % 0.0 in /  0 mm
18:38 8.3 °F /  -13.2 °C 7.0 °F /  -13.9 °C 1022.9 in /  34635.4 hPa Calm   6.9 mph /  11.1 km/h 89 % 0.0 in /  0 mm
18:43 8.2 °F /  -13.2 °C 7.0 °F /  -13.9 °C 1022.9 in /  34635.4 hPa South 2.1 mph /  3.4 km/h 4.7 mph /  7.6 km/h 89 % 0.0 in /  0 mm
18:48 8.1 °F /  -13.3 °C 7.0 °F /  -13.9 °C 1022.9 in /  34635.4 hPa Calm   4.7 mph /  7.6 km/h 89 % 0.0 in /  0 mm
18:53 7.9 °F /  -13.4 °C 6.0 °F /  -14.4 °C 1022.9 in /  34635.4 hPa Calm   4.0 mph /  6.4 km/h 90 % 0.0 in /  0 mm
18:58 7.7 °F /  -13.5 °C 6.0 °F /  -14.4 °C 1022.9 in /  34635.4 hPa Calm   6.9 mph /  11.1 km/h 90 % 0.0 in /  0 mm
19:03 7.5 °F /  -13.6 °C 6.0 °F /  -14.4 °C 1021.9 in /  34601.5 hPa Calm   6.9 mph /  11.1 km/h 91 % 0.0 in /  0 mm
19:08 7.5 °F /  -13.6 °C 6.0 °F /  -14.4 °C 1021.9 in /  34601.5 hPa South 6.9 mph /  11.1 km/h 7.6 mph /  12.2 km/h 91 % 0.0 in /  0 mm
19:13 7.4 °F /  -13.7 °C 6.0 °F /  -14.4 °C 1021.9 in /  34601.5 hPa Calm   7.6 mph /  12.2 km/h 92 % 0.0 in /  0 mm
19:18 7.3 °F /  -13.7 °C 6.0 °F /  -14.4 °C 1021.9 in /  34601.5 hPa Calm   6.9 mph /  11.1 km/h 92 % 0.0 in /  0 mm
19:23 7.2 °F /  -13.8 °C 6.0 °F /  -14.4 °C 1021.9 in /  34601.5 hPa South 5.5 mph /  8.9 km/h 7.9 mph /  12.7 km/h 93 % 0.0 in /  0 mm
19:28 7.1 °F /  -13.8 °C 6.0 °F /  -14.4 °C 1021.9 in /  34601.5 hPa Calm   7.9 mph /  12.7 km/h 93 % 0.0 in /  0 mm
19:33 7.1 °F /  -13.8 °C 6.0 °F /  -14.4 °C 1021.9 in /  34601.5 hPa Calm   7.6 mph /  12.2 km/h 94 % 0.0 in /  0 mm
19:38 7.1 °F /  -13.8 °C 6.0 °F /  -14.4 °C 1021.9 in /  34601.5 hPa Calm   7.6 mph /  12.2 km/h 94 % 0.0 in /  0 mm
19:44 7.0 °F /  -13.9 °C 6.0 °F /  -14.4 °C 1021.9 in /  34601.5 hPa Calm   7.2 mph /  11.6 km/h 95 % 0.0 in /  0 mm
19:49 6.9 °F /  -13.9 °C 6.0 °F /  -14.4 °C 1021.9 in /  34601.5 hPa South 5.0 mph /  8 km/h 6.1 mph /  9.8 km/h 95 % 0.0 in /  0 mm
19:54 6.9 °F /  -13.9 °C 7.0 °F /  -13.9 °C 1021.9 in /  34601.5 hPa Calm   6.1 mph /  9.8 km/h 96 % 0.0 in /  0 mm
19:59 7.0 °F /  -13.9 °C 7.0 °F /  -13.9 °C 1021.9 in /  34601.5 hPa SW 5.0 mph /  8 km/h 7.9 mph /  12.7 km/h 96 % 0.0 in /  0 mm
20:04 7.1 °F /  -13.8 °C 7.0 °F /  -13.9 °C 1021.9 in /  34601.5 hPa SSW 5.0 mph /  8 km/h 7.9 mph /  12.7 km/h 96 % 0.0 in /  0 mm
20:09 7.2 °F /  -13.8 °C 7.0 °F /  -13.9 °C 1021.9 in /  34601.5 hPa SSW 3.2 mph /  5.1 km/h 8.7 mph /  14 km/h 97 % 0.0 in /  0 mm
20:14 7.3 °F /  -13.7 °C 7.0 °F /  -13.9 °C 1021.9 in /  34601.5 hPa Calm   9.7 mph /  15.6 km/h 97 % 0.0 in /  0 mm
20:19 7.4 °F /  -13.7 °C 7.0 °F /  -13.9 °C 1021.9 in /  34601.5 hPa Calm   9.7 mph /  15.6 km/h 98 % 0.0 in /  0 mm
20:24 7.5 °F /  -13.6 °C 8.0 °F /  -13.3 °C 1021.9 in /  34601.5 hPa SSW 6.4 mph /  10.3 km/h 7.9 mph /  12.7 km/h 98 % 0.0 in /  0 mm
20:29 7.6 °F /  -13.6 °C 8.0 °F /  -13.3 °C 1021.9 in /  34601.5 hPa WSW 6.9 mph /  11.1 km/h 8.7 mph /  14 km/h 98 % 0.0 in /  0 mm
20:34 7.7 °F /  -13.5 °C 8.0 °F /  -13.3 °C 1021.9 in /  34601.5 hPa SSW 5.8 mph /  9.3 km/h 8.7 mph /  14 km/h 98 % 0.0 in /  0 mm
20:39 7.8 °F /  -13.4 °C 8.0 °F /  -13.3 °C 1021.9 in /  34601.5 hPa SW 6.1 mph /  9.8 km/h 9.3 mph /  15 km/h 98 % 0.0 in /  0 mm
20:44 7.8 °F /  -13.4 °C 8.0 °F /  -13.3 °C 1020.9 in /  34567.7 hPa SW 5.8 mph /  9.3 km/h 9.3 mph /  15 km/h 98 % 0.0 in /  0 mm
20:49 7.9 °F /  -13.4 °C 8.0 °F /  -13.3 °C 1020.9 in /  34567.7 hPa SSW 4.3 mph /  6.9 km/h 9.0 mph /  14.5 km/h 98 % 0.0 in /  0 mm
20:54 7.9 °F /  -13.4 °C 8.0 °F /  -13.3 °C 1020.9 in /  34567.7 hPa SW 7.9 mph /  12.7 km/h 10.5 mph /  16.9 km/h 98 % 0.0 in /  0 mm
20:59 8.0 °F /  -13.3 °C 8.0 °F /  -13.3 °C 1020.9 in /  34567.7 hPa SSW 8.7 mph /  14 km/h 10.5 mph /  16.9 km/h 98 % 0.0 in /  0 mm
21:04 8.1 °F /  -13.3 °C 8.0 °F /  -13.3 °C 1020.9 in /  34567.7 hPa SW 9.0 mph /  14.5 km/h 12.6 mph /  20.3 km/h 98 % 0.0 in /  0 mm
21:09 8.1 °F /  -13.3 °C 8.0 °F /  -13.3 °C 1020.9 in /  34567.7 hPa SW 6.9 mph /  11.1 km/h 12.6 mph /  20.3 km/h 98 % 0.0 in /  0 mm
21:14 8.2 °F /  -13.2 °C 8.0 °F /  -13.3 °C 1020.9 in /  34567.7 hPa WSW 9.0 mph /  14.5 km/h 11.6 mph /  18.7 km/h 98 % 0.0 in /  0 mm
21:19 8.2 °F /  -13.2 °C 8.0 °F /  -13.3 °C 1020.9 in /  34567.7 hPa WSW 9.3 mph /  15 km/h 13.0 mph /  20.9 km/h 98 % 0.0 in /  0 mm
21:24 8.3 °F /  -13.2 °C 9.0 °F /  -12.8 °C 1020.9 in /  34567.7 hPa SSW 8.7 mph /  14 km/h 13.0 mph /  20.9 km/h 98 % 0.0 in /  0 mm
21:29 8.3 °F /  -13.2 °C 9.0 °F /  -12.8 °C 1020.9 in /  34567.7 hPa SW 6.1 mph /  9.8 km/h 13.0 mph /  20.9 km/h 98 % 0.0 in /  0 mm
21:34 8.3 °F /  -13.2 °C 9.0 °F /  -12.8 °C 1020.9 in /  34567.7 hPa SSW 10.1 mph /  16.3 km/h 13.0 mph /  20.9 km/h 98 % 0.0 in /  0 mm
21:39 8.3 °F /  -13.2 °C 9.0 °F /  -12.8 °C 1020.9 in /  34567.7 hPa Calm   12.6 mph /  20.3 km/h 98 % 0.0 in /  0 mm
21:44 8.3 °F /  -13.2 °C 9.0 °F /  -12.8 °C 1020.9 in /  34567.7 hPa SW 7.9 mph /  12.7 km/h 11.9 mph /  19.2 km/h 98 % 0.0 in /  0 mm
21:49 8.3 °F /  -13.2 °C 9.0 °F /  -12.8 °C 1020.9 in /  34567.7 hPa SW 7.9 mph /  12.7 km/h 12.2 mph /  19.6 km/h 98 % 0.0 in /  0 mm
21:54 8.3 °F /  -13.2 °C 9.0 °F /  -12.8 °C 1020.9 in /  34567.7 hPa Calm   12.2 mph /  19.6 km/h 98 % 0.0 in /  0 mm
21:59 8.3 °F /  -13.2 °C 9.0 °F /  -12.8 °C 1020.9 in /  34567.7 hPa SSW 7.9 mph /  12.7 km/h 9.3 mph /  15 km/h 98 % 0.0 in /  0 mm
22:04 8.3 °F /  -13.2 °C 9.0 °F /  -12.8 °C 1020.9 in /  34567.7 hPa Calm   9.0 mph /  14.5 km/h 98 % 0.0 in /  0 mm
22:09 8.3 °F /  -13.2 °C 9.0 °F /  -12.8 °C 1020.9 in /  34567.7 hPa SW 6.9 mph /  11.1 km/h 8.7 mph /  14 km/h 98 % 0.0 in /  0 mm
22:15 8.3 °F /  -13.2 °C 9.0 °F /  -12.8 °C 1018.8 in /  34496.6 hPa SSW 10.1 mph /  16.3 km/h 10.8 mph /  17.4 km/h 98 % 0.0 in /  0 mm
22:20 8.3 °F /  -13.2 °C 9.0 °F /  -12.8 °C 1018.8 in /  34496.6 hPa SSW 8.7 mph /  14 km/h 11.9 mph /  19.2 km/h 98 % 0.0 in /  0 mm
22:25 8.3 °F /  -13.2 °C 9.0 °F /  -12.8 °C 1018.8 in /  34496.6 hPa SSW 8.7 mph /  14 km/h 11.9 mph /  19.2 km/h 98 % 0.0 in /  0 mm
22:30 8.3 °F /  -13.2 °C 9.0 °F /  -12.8 °C 1018.8 in /  34496.6 hPa SW 9.0 mph /  14.5 km/h 11.1 mph /  17.9 km/h 98 % 0.0 in /  0 mm
22:35 8.3 °F /  -13.2 °C 9.0 °F /  -12.8 °C 1018.8 in /  34496.6 hPa SSW 9.0 mph /  14.5 km/h 12.2 mph /  19.6 km/h 98 % 0.0 in /  0 mm
22:40 8.4 °F /  -13.1 °C 9.0 °F /  -12.8 °C 1018.8 in /  34496.6 hPa SSW 6.4 mph /  10.3 km/h 12.2 mph /  19.6 km/h 98 % 0.0 in /  0 mm
22:45 8.4 °F /  -13.1 °C 9.0 °F /  -12.8 °C 1018.2 in /  34476.3 hPa SW 9.0 mph /  14.5 km/h 12.2 mph /  19.6 km/h 98 % 0.0 in /  0 mm
22:50 8.4 °F /  -13.1 °C 9.0 °F /  -12.8 °C 1018.2 in /  34476.3 hPa South 2.1 mph /  3.4 km/h 12.2 mph /  19.6 km/h 98 % 0.0 in /  0 mm
22:55 8.4 °F /  -13.1 °C 9.0 °F /  -12.8 °C 1018.2 in /  34476.3 hPa Calm   9.7 mph /  15.6 km/h 98 % 0.0 in /  0 mm
23:00 8.4 °F /  -13.1 °C 9.0 °F /  -12.8 °C 1018.8 in /  34496.6 hPa SSW 6.9 mph /  11.1 km/h 10.1 mph /  16.3 km/h 98 % 0.0 in /  0 mm
23:05 8.4 °F /  -13.1 °C 9.0 °F /  -12.8 °C 1018.8 in /  34496.6 hPa Calm   13.0 mph /  20.9 km/h 98 % 0.0 in /  0 mm
23:10 8.5 °F /  -13.1 °C 9.0 °F /  -12.8 °C 1018.8 in /  34496.6 hPa SSW 6.4 mph /  10.3 km/h 13.0 mph /  20.9 km/h 98 % 0.0 in /  0 mm
23:15 8.5 °F /  -13.1 °C 9.0 °F /  -12.8 °C 1018.8 in /  34496.6 hPa South 9.7 mph /  15.6 km/h 13.0 mph /  20.9 km/h 98 % 0.0 in /  0 mm
23:20 8.5 °F /  -13.1 °C 9.0 °F /  -12.8 °C 1018.8 in /  34496.6 hPa SW 6.1 mph /  9.8 km/h 13.0 mph /  20.9 km/h 98 % 0.0 in /  0 mm
23:25 8.6 °F /  -13 °C 9.0 °F /  -12.8 °C 1018.8 in /  34496.6 hPa SSW 8.7 mph /  14 km/h 12.6 mph /  20.3 km/h 98 % 0.0 in /  0 mm
23:30 8.7 °F /  -12.9 °C 9.0 °F /  -12.8 °C 1018.8 in /  34496.6 hPa SSW 10.1 mph /  16.3 km/h 10.8 mph /  17.4 km/h 98 % 0.0 in /  0 mm
23:35 8.8 °F /  -12.9 °C 9.0 °F /  -12.8 °C 1018.8 in /  34496.6 hPa SSW 9.7 mph /  15.6 km/h 10.1 mph /  16.3 km/h 98 % 0.0 in /  0 mm
23:40 8.8 °F /  -12.9 °C 9.0 °F /  -12.8 °C 1018.8 in /  34496.6 hPa SW 10.8 mph /  17.4 km/h 14.0 mph /  22.5 km/h 98 % 0.0 in /  0 mm
23:45 9.0 °F /  -12.8 °C 9.0 °F /  -12.8 °C 1018.2 in /  34476.3 hPa SW 10.1 mph /  16.3 km/h 14.8 mph /  23.8 km/h 98 % 0.0 in /  0 mm
23:50 9.1 °F /  -12.7 °C 9.0 °F /  -12.8 °C 1018.2 in /  34476.3 hPa SSW 11.6 mph /  18.7 km/h 14.8 mph /  23.8 km/h 98 % 0.0 in /  0 mm
23:55 9.2 °F /  -12.7 °C 9.0 °F /  -12.8 °C 1018.2 in /  34476.3 hPa SW 12.6 mph /  20.3 km/h 15.1 mph /  24.3 km/h 98 % 0.0 in /  0 mm
Le Gheer Warneton
Courtoisie de Weather Underground - 2.5 mb

Mise a jour : 24/02/2018 22:35:11
Généré par Cumulus 1.9.4 (1099)